Time;durP1;ratioP1;P1;durP2;ratioP2;P2;SDS_P1;SDS_P2;PMS_P1;PMS_P2;Temp;Humidity;BMP_temperature;BMP_pressure;BME280_temperature;BME280_humidity;BME280_pressure;Samples;Min_cycle;Max_cycle;Signal;HPM_P1;HPM_P2
2022/04/08 00:02:03;;;;;;;;;;;18.90;99.90;;;;;;4862939;29;19931;-72
2022/04/08 00:04:32;;;;;;;;;;;19.00;99.90;;;;;;4863087;29;19916;-72
2022/04/08 00:06:59;;;;;;;;;;;19.00;99.90;;;;;;4863259;29;20008;-72
2022/04/08 00:09:26;;;;;;;;;;;19.00;99.90;;;;;;4863143;29;20010;-73
2022/04/08 00:11:53;;;;;;;;;;;19.00;99.90;;;;;;4862764;29;20406;-72
2022/04/08 00:14:20;;;;;;;;;;;19.20;99.90;;;;;;4863010;29;20402;-76
2022/04/08 00:16:46;;;;;;;;;;;19.30;99.90;;;;;;4862182;29;19934;-73
2022/04/08 00:19:14;;;;;;;;;;;19.30;99.90;;;;;;4862957;29;19912;-72
2022/04/08 00:21:41;;;;;;;;;;;19.30;99.90;;;;;;4862590;29;20002;-77
2022/04/08 00:24:07;;;;;;;;;;;19.40;99.90;;;;;;4862872;29;19922;-73
2022/04/08 00:26:34;;;;;;;;;;;19.50;99.90;;;;;;4862782;29;19920;-75
2022/04/08 00:29:01;;;;;;;;;;;19.60;99.90;;;;;;4862717;29;19912;-73
2022/04/08 00:31:27;;;;;;;;;;;19.50;99.90;;;;;;4860745;29;19972;-73
2022/04/08 00:33:54;;;;;;;;;;;19.40;99.90;;;;;;4861695;29;19920;-73
2022/04/08 00:36:21;;;;;;;;;;;19.60;99.90;;;;;;4861640;29;20375;-72
2022/04/08 00:38:48;;;;;;;;;;;19.80;99.90;;;;;;4861417;29;19917;-73
2022/04/08 00:41:15;;;;;;;;;;;19.80;99.90;;;;;;4860341;29;19955;-74
2022/04/08 00:43:42;;;;;;;;;;;19.70;99.90;;;;;;4860543;29;19912;-73
2022/04/08 00:46:12;;;;;;;;;;;19.70;99.90;;;;;;4860706;29;19992;-75
2022/04/08 00:48:38;;;;;;;;;;;19.80;99.90;;;;;;4860892;29;19912;-73
2022/04/08 00:51:06;;;;;;;;;;;20.10;99.90;;;;;;4860923;29;19935;-76
2022/04/08 00:53:35;;;;;;;;;;;20.30;99.90;;;;;;4860582;29;19916;-74
2022/04/08 00:56:02;;;;;;;;;;;20.40;99.90;;;;;;4862004;29;19912;-75
2022/04/08 00:58:29;;;;;;;;;;;20.40;99.90;;;;;;4862099;29;19912;-73
2022/04/08 01:00:56;;;;;;;;;;;20.20;99.90;;;;;;4862011;29;20052;-73
2022/04/08 01:03:22;;;;;;;;;;;20.10;99.90;;;;;;4862078;29;20292;-76
2022/04/08 01:05:49;;;;;;;;;;;20.30;99.90;;;;;;4861723;29;20257;-78
2022/04/08 01:08:17;;;;;;;;;;;20.40;99.90;;;;;;4861899;29;19919;-77
2022/04/08 01:10:44;;;;;;;;;;;20.60;99.90;;;;;;4862086;29;20338;-78
2022/04/08 01:13:11;;;;;;;;;;;20.80;99.90;;;;;;4861779;29;19928;-76
2022/04/08 01:15:37;;;;;;;;;;;21.10;99.90;;;;;;4861791;29;20375;-76
2022/04/08 01:18:07;;;;;;;;;;;21.00;99.90;;;;;;4861661;29;19995;-76
2022/04/08 01:20:34;;;;;;;;;;;21.30;99.90;;;;;;4861845;29;20482;-78
2022/04/08 01:23:00;;;;;;;;;;;21.40;99.90;;;;;;4861828;29;19913;-77
2022/04/08 01:25:27;;;;;;;;;;;21.50;99.90;;;;;;4861912;29;19936;-76
2022/04/08 01:27:54;;;;;;;;;;;21.90;99.90;;;;;;4860049;29;19912;-77
2022/04/08 01:30:20;;;;;;;;;;;22.10;99.90;;;;;;4861483;29;19942;-77
2022/04/08 01:32:47;;;;;;;;;;;22.10;99.90;;;;;;4860184;29;19917;-77
2022/04/08 01:35:14;;;;;;;;;;;22.10;99.90;;;;;;4861661;29;19968;-77
2022/04/08 01:37:41;;;;;;;;;;;22.00;99.90;;;;;;4861392;29;19948;-77
2022/04/08 01:40:08;;;;;;;;;;;21.90;99.90;;;;;;4861523;29;19916;-77
2022/04/08 01:42:34;;;;;;;;;;;21.80;99.90;;;;;;4861524;29;19913;-76
2022/04/08 01:45:01;;;;;;;;;;;21.80;99.90;;;;;;4861428;29;19916;-76
2022/04/08 01:47:28;;;;;;;;;;;21.90;99.90;;;;;;4861351;29;20037;-73
2022/04/08 01:49:54;;;;;;;;;;;22.00;99.90;;;;;;4861135;29;19947;-74
2022/04/08 01:52:21;;;;;;;;;;;22.00;99.90;;;;;;4861436;29;19912;-73
2022/04/08 01:54:48;;;;;;;;;;;22.10;99.90;;;;;;4861277;29;19992;-73
2022/04/08 01:57:17;;;;;;;;;;;22.00;99.90;;;;;;4861168;29;19919;-73
2022/04/08 01:59:44;;;;;;;;;;;22.00;99.90;;;;;;4860946;29;20316;-73
2022/04/08 02:02:11;;;;;;;;;;;21.80;99.90;;;;;;4856892;29;19924;-75
2022/04/08 02:04:38;;;;;;;;;;;21.70;99.90;;;;;;4842937;29;19924;-77
2022/04/08 02:07:08;;;;;;;;;;;21.80;99.90;;;;;;4842063;29;20200;-75
2022/04/08 02:09:35;;;;;;;;;;;21.90;99.90;;;;;;4842612;29;19961;-76
2022/04/08 02:12:02;;;;;;;;;;;21.90;99.90;;;;;;4842648;29;20437;-75
2022/04/08 02:14:29;;;;;;;;;;;21.80;99.90;;;;;;4842696;29;19942;-75
2022/04/08 02:16:55;;;;;;;;;;;21.70;99.90;;;;;;4842743;29;19924;-74
2022/04/08 02:19:22;;;;;;;;;;;21.80;99.90;;;;;;4842590;29;19912;-75
2022/04/08 02:21:49;;;;;;;;;;;22.10;99.90;;;;;;4842498;29;19912;-73
2022/04/08 02:24:16;;;;;;;;;;;22.20;99.90;;;;;;4842683;29;19913;-73
2022/04/08 02:26:42;;;;;;;;;;;22.00;99.90;;;;;;4842482;29;19912;-73
2022/04/08 02:29:10;;;;;;;;;;;22.00;99.90;;;;;;4842469;29;20004;-75
2022/04/08 02:31:36;;;;;;;;;;;22.00;99.90;;;;;;4842041;29;19913;-73
2022/04/08 02:34:03;;;;;;;;;;;21.90;99.90;;;;;;4852686;29;20011;-73
2022/04/08 02:36:30;;;;;;;;;;;22.00;99.90;;;;;;4842423;29;19990;-73
2022/04/08 02:38:56;;;;;;;;;;;22.00;99.90;;;;;;4844092;29;19913;-73
2022/04/08 02:41:23;;;;;;;;;;;21.90;99.90;;;;;;4845959;29;20288;-73
2022/04/08 02:43:50;;;;;;;;;;;21.50;99.90;;;;;;4845934;29;19940;-73
2022/04/08 02:46:16;;;;;;;;;;;20.90;99.90;;;;;;4846095;29;19912;-73
2022/04/08 02:48:43;;;;;;;;;;;20.50;99.90;;;;;;4846113;29;19920;-73
2022/04/08 02:51:10;;;;;;;;;;;20.20;99.90;;;;;;4862044;29;19912;-73
2022/04/08 02:53:36;;;;;;;;;;;20.20;99.90;;;;;;4864086;29;19912;-73
2022/04/08 02:56:03;;;;;;;;;;;20.20;99.90;;;;;;4864380;29;19924;-73
2022/04/08 02:58:30;;;;;;;;;;;20.20;99.90;;;;;;4864337;29;19920;-73
2022/04/08 03:00:59;;;;;;;;;;;20.30;99.90;;;;;;4864360;29;19916;-73
2022/04/08 03:03:27;;;;;;;;;;;20.30;99.90;;;;;;4877089;29;20387;-75
2022/04/08 03:05:54;;;;;;;;;;;20.40;99.90;;;;;;4882429;29;19986;-74
2022/04/08 03:08:21;;;;;;;;;;;20.40;99.90;;;;;;4882795;29;19912;-73
2022/04/08 03:10:48;;;;;;;;;;;20.50;99.90;;;;;;4882561;29;19998;-75
2022/04/08 03:13:14;;;;;;;;;;;20.30;99.90;;;;;;4882750;29;19916;-74
2022/04/08 03:15:41;;;;;;;;;;;20.20;99.90;;;;;;4882318;29;19964;-76
2022/04/08 03:18:08;;;;;;;;;;;20.10;99.90;;;;;;4882461;29;19984;-77
2022/04/08 03:20:34;;;;;;;;;;;20.10;99.90;;;;;;4882486;29;19959;-77
2022/04/08 03:23:01;;;;;;;;;;;20.10;99.90;;;;;;4882391;29;20283;-77
2022/04/08 03:25:28;;;;;;;;;;;20.10;99.90;;;;;;4882396;29;19967;-76
2022/04/08 03:27:54;;;;;;;;;;;20.20;99.90;;;;;;4882418;29;20328;-76
2022/04/08 03:30:21;;;;;;;;;;;20.10;99.90;;;;;;4882423;29;19919;-76
2022/04/08 03:32:47;;;;;;;;;;;20.20;99.90;;;;;;4882200;29;20375;-77
2022/04/08 03:35:14;;;;;;;;;;;20.30;99.90;;;;;;4882218;29;19920;-76
2022/04/08 03:37:41;;;;;;;;;;;20.40;99.90;;;;;;4881930;29;19919;-78
2022/04/08 03:40:08;;;;;;;;;;;20.40;99.90;;;;;;4882121;29;19918;-76
2022/04/08 03:42:34;;;;;;;;;;;20.50;99.90;;;;;;4882086;29;20011;-77
2022/04/08 03:45:01;;;;;;;;;;;20.60;99.90;;;;;;4882205;29;20379;-77
2022/04/08 03:47:28;;;;;;;;;;;20.70;99.90;;;;;;4882048;29;20264;-76
2022/04/08 03:49:54;;;;;;;;;;;20.60;99.90;;;;;;4880865;29;20343;-76
2022/04/08 03:52:21;;;;;;;;;;;20.60;99.90;;;;;;4881813;29;19912;-76
2022/04/08 03:54:48;;;;;;;;;;;20.70;99.90;;;;;;4881709;29;20095;-75
2022/04/08 03:57:15;;;;;;;;;;;20.70;99.90;;;;;;4881831;29;19912;-77
2022/04/08 03:59:42;;;;;;;;;;;20.80;99.90;;;;;;4881805;29;19951;-75
2022/04/08 04:02:08;;;;;;;;;;;20.60;99.90;;;;;;4881628;29;20271;-74
2022/04/08 04:04:35;;;;;;;;;;;20.50;99.90;;;;;;4881738;29;19927;-76
2022/04/08 04:07:02;;;;;;;;;;;20.60;99.90;;;;;;4881696;29;19912;-77
2022/04/08 04:09:28;;;;;;;;;;;20.70;99.90;;;;;;4881575;29;20324;-76
2022/04/08 04:11:55;;;;;;;;;;;20.60;99.90;;;;;;4881473;29;19912;-76
2022/04/08 04:14:21;;;;;;;;;;;20.70;99.90;;;;;;4881654;29;19916;-76
2022/04/08 04:16:48;;;;;;;;;;;20.80;99.90;;;;;;4864995;29;20348;-77
2022/04/08 04:19:15;;;;;;;;;;;20.70;99.90;;;;;;4881398;29;19966;-78
2022/04/08 04:21:42;;;;;;;;;;;20.70;99.90;;;;;;4881176;29;19912;-75
2022/04/08 04:24:08;;;;;;;;;;;20.80;99.90;;;;;;4881499;29;19912;-78
2022/04/08 04:26:35;;;;;;;;;;;21.00;99.90;;;;;;4881259;29;19958;-77
2022/04/08 04:29:02;;;;;;;;;;;21.00;99.90;;;;;;4881335;29;19919;-74
2022/04/08 04:31:28;;;;;;;;;;;20.90;99.90;;;;;;4881252;29;19912;-75
2022/04/08 04:33:55;;;;;;;;;;;21.00;99.90;;;;;;4880923;29;19919;-75
2022/04/08 04:36:22;;;;;;;;;;;21.00;99.90;;;;;;4881126;29;19912;-77
2022/04/08 04:38:48;;;;;;;;;;;20.80;99.90;;;;;;4881058;29;19911;-77
2022/04/08 04:41:15;;;;;;;;;;;20.70;99.90;;;;;;4881046;29;19912;-77
2022/04/08 04:43:42;;;;;;;;;;;20.70;99.90;;;;;;4881015;29;19960;-78
2022/04/08 04:46:08;;;;;;;;;;;20.70;99.90;;;;;;4880958;29;20007;-78
2022/04/08 04:48:35;;;;;;;;;;;20.60;99.90;;;;;;4881043;29;19919;-78
2022/04/08 04:51:01;;;;;;;;;;;20.40;99.90;;;;;;4881019;29;19912;-78
2022/04/08 04:53:28;;;;;;;;;;;20.30;99.90;;;;;;4880948;29;19916;-77
2022/04/08 04:55:56;;;;;;;;;;;20.30;99.90;;;;;;4880615;29;20019;-77
2022/04/08 04:58:23;;;;;;;;;;;20.00;99.90;;;;;;4880786;29;19994;-75
2022/04/08 05:00:49;;;;;;;;;;;19.80;99.90;;;;;;4880742;29;19912;-75
2022/04/08 05:03:16;;;;;;;;;;;19.70;99.90;;;;;;4880149;29;19923;-77
2022/04/08 05:05:43;;;;;;;;;;;19.70;99.90;;;;;;4880464;29;19912;-76
2022/04/08 05:08:09;;;;;;;;;;;19.50;99.90;;;;;;4880660;29;19918;-74
2022/04/08 05:10:36;;;;;;;;;;;19.40;99.90;;;;;;4880103;29;19912;-73
2022/04/08 05:13:03;;;;;;;;;;;19.40;99.90;;;;;;4880582;29;19954;-74
2022/04/08 05:15:32;;;;;;;;;;;19.50;99.90;;;;;;4880522;29;20306;-75
2022/04/08 05:17:59;;;;;;;;;;;19.50;99.90;;;;;;4880379;29;19912;-76
2022/04/08 05:20:26;;;;;;;;;;;19.50;99.90;;;;;;4864050;29;19912;-73
2022/04/08 05:22:53;;;;;;;;;;;19.60;99.90;;;;;;4880258;29;20002;-75
2022/04/08 05:25:20;;;;;;;;;;;19.60;99.90;;;;;;4880145;29;19991;-73
2022/04/08 05:27:47;;;;;;;;;;;19.60;99.90;;;;;;4880318;29;20037;-76
2022/04/08 05:30:18;;;;;;;;;;;19.70;99.90;;;;;;4880292;29;19919;-76
2022/04/08 05:32:48;;;;;;;;;;;19.80;99.90;;;;;;4880191;29;19925;-73
2022/04/08 05:35:15;;;;;;;;;;;19.80;99.90;;;;;;4880156;29;19943;-74
2022/04/08 05:37:43;;;;;;;;;;;19.80;99.90;;;;;;4879689;29;20335;-74
2022/04/08 05:40:11;;;;;;;;;;;19.90;99.90;;;;;;4879846;29;19918;-73
2022/04/08 05:42:39;;;;;;;;;;;19.90;99.90;;;;;;4879948;29;19915;-76
2022/04/08 05:45:09;;;;;;;;;;;19.90;99.90;;;;;;4879947;29;19968;-73
2022/04/08 05:47:36;;;;;;;;;;;19.90;99.90;;;;;;4879749;29;20271;-73
2022/04/08 05:50:03;;;;;;;;;;;20.00;99.90;;;;;;4879735;29;19976;-74
2022/04/08 05:52:30;;;;;;;;;;;19.90;99.90;;;;;;4879778;29;19920;-76
2022/04/08 05:54:57;;;;;;;;;;;20.00;99.90;;;;;;4879650;29;19920;-74
2022/04/08 05:57:24;;;;;;;;;;;20.00;99.90;;;;;;4879668;29;20328;-73
2022/04/08 05:59:50;;;;;;;;;;;20.00;99.90;;;;;;4879470;29;20375;-75
2022/04/08 06:02:19;;;;;;;;;;;20.00;99.90;;;;;;4879486;29;19996;-74
2022/04/08 06:04:46;;;;;;;;;;;19.90;99.90;;;;;;4879617;29;19951;-76
2022/04/08 06:07:13;;;;;;;;;;;19.70;99.90;;;;;;4879677;29;19912;-73
2022/04/08 06:09:39;;;;;;;;;;;19.60;99.90;;;;;;4879328;29;19919;-74
2022/04/08 06:12:06;;;;;;;;;;;19.50;99.90;;;;;;4879552;29;19912;-73
2022/04/08 06:14:33;;;;;;;;;;;19.40;99.90;;;;;;4878927;29;19920;-73
2022/04/08 06:16:59;;;;;;;;;;;19.30;99.90;;;;;;4862802;29;19911;-73
2022/04/08 06:19:26;;;;;;;;;;;19.40;99.90;;;;;;4879512;29;19919;-71
2022/04/08 06:21:54;;;;;;;;;;;19.30;99.90;;;;;;4879359;29;19915;-71
2022/04/08 06:24:21;;;;;;;;;;;19.30;99.90;;;;;;4879407;29;19919;-72
2022/04/08 06:26:48;;;;;;;;;;;19.30;99.90;;;;;;4879398;29;20263;-73
2022/04/08 06:29:14;;;;;;;;;;;19.40;99.90;;;;;;4879537;29;19919;-73
2022/04/08 06:31:41;;;;;;;;;;;19.30;99.90;;;;;;4879321;29;19912;-73
2022/04/08 06:34:08;;;;;;;;;;;19.30;99.90;;;;;;4879280;29;19926;-73
2022/04/08 06:36:34;;;;;;;;;;;19.30;99.90;;;;;;4879339;29;19923;-73
2022/04/08 06:39:01;;;;;;;;;;;19.30;99.90;;;;;;4879223;29;20011;-72
2022/04/08 06:41:27;;;;;;;;;;;19.20;99.90;;;;;;4879207;29;19958;-72
2022/04/08 06:43:54;;;;;;;;;;;19.20;99.90;;;;;;4879083;29;20267;-73
2022/04/08 06:46:22;;;;;;;;;;;19.20;99.90;;;;;;4879241;29;20002;-72
2022/04/08 06:48:49;;;;;;;;;;;19.20;99.90;;;;;;4879293;29;20386;-76
2022/04/08 06:51:16;;;;;;;;;;;19.20;99.90;;;;;;4860900;29;20388;-71
2022/04/08 06:53:43;;;;;;;;;;;19.20;99.90;;;;;;4876836;29;19920;-72
2022/04/08 06:56:09;;;;;;;;;;;19.20;99.90;;;;;;4876977;29;19975;-72
2022/04/08 06:58:39;;;;;;;;;;;19.20;99.90;;;;;;4877036;29;19918;-72
2022/04/08 07:01:08;;;;;;;;;;;19.20;99.90;;;;;;4876962;29;19912;-72
2022/04/08 07:03:35;;;;;;;;;;;19.20;99.90;;;;;;4876606;29;19996;-73
2022/04/08 07:06:03;;;;;;;;;;;19.30;99.90;;;;;;4876569;29;19924;-72
2022/04/08 07:08:30;;;;;;;;;;;19.30;99.90;;;;;;4876836;29;20279;-72
2022/04/08 07:10:57;;;;;;;;;;;19.30;99.90;;;;;;4876851;29;19911;-72
2022/04/08 07:13:23;;;;;;;;;;;19.40;99.90;;;;;;4877008;29;19915;-72
2022/04/08 07:15:50;;;;;;;;;;;19.40;99.90;;;;;;4859870;29;19967;-72
2022/04/08 07:18:17;;;;;;;;;;;19.40;99.90;;;;;;4876314;29;19987;-73
2022/04/08 07:20:43;;;;;;;;;;;19.40;99.90;;;;;;4876971;29;19964;-73
2022/04/08 07:23:10;;;;;;;;;;;19.30;99.90;;;;;;4876785;29;19916;-77
2022/04/08 07:25:38;;;;;;;;;;;19.30;99.90;;;;;;4878659;29;19912;-77
2022/04/08 07:28:05;;;;;;;;;;;19.20;99.90;;;;;;4880185;29;19945;-77
2022/04/08 07:30:31;;;;;;;;;;;19.10;99.90;;;;;;4879832;29;19999;-77
2022/04/08 07:33:00;;;;;;;;;;;19.10;99.90;;;;;;4880072;29;19950;-72
2022/04/08 07:35:27;;;;;;;;;;;19.10;99.90;;;;;;4880045;29;20027;-75
2022/04/08 07:37:54;;;;;;;;;;;19.00;99.90;;;;;;4879652;29;19912;-73
2022/04/08 07:40:20;;;;;;;;;;;19.00;99.90;;;;;;4879946;29;19922;-77
2022/04/08 07:42:47;;;;;;;;;;;19.00;99.90;;;;;;4879726;29;19916;-73
2022/04/08 07:45:14;;;;;;;;;;;19.00;99.90;;;;;;4879520;29;19916;-73
2022/04/08 07:47:41;;;;;;;;;;;19.00;99.90;;;;;;4879554;29;19923;-74
2022/04/08 07:50:09;;;;;;;;;;;19.10;99.90;;;;;;4879820;29;20579;-73
2022/04/08 07:52:37;;;;;;;;;;;19.10;99.90;;;;;;4879899;29;19912;-76
2022/04/08 07:55:04;;;;;;;;;;;19.20;99.90;;;;;;4879459;29;19920;-75
2022/04/08 07:57:31;;;;;;;;;;;19.20;99.90;;;;;;4879283;29;19969;-76
2022/04/08 07:59:58;;;;;;;;;;;19.20;99.90;;;;;;4879721;29;19915;-74
2022/04/08 08:02:29;;;;;;;;;;;19.20;99.90;;;;;;4879546;29;20387;-76
2022/04/08 08:04:55;;;;;;;;;;;19.30;99.90;;;;;;4879612;29;19912;-77
2022/04/08 08:07:22;;;;;;;;;;;19.40;99.90;;;;;;4879630;29;19912;-77
2022/04/08 08:09:49;;;;;;;;;;;19.40;99.90;;;;;;4878802;29;19912;-77
2022/04/08 08:12:15;;;;;;;;;;;19.50;99.90;;;;;;4879376;29;19912;-76
2022/04/08 08:14:42;;;;;;;;;;;19.70;99.90;;;;;;4879465;29;20375;-76
2022/04/08 08:17:09;;;;;;;;;;;19.80;99.90;;;;;;4879541;29;19915;-75
2022/04/08 08:19:36;;;;;;;;;;;19.80;99.90;;;;;;4878975;29;19922;-76
2022/04/08 08:22:03;;;;;;;;;;;19.90;99.90;;;;;;4879138;29;19915;-77
2022/04/08 08:24:30;;;;;;;;;;;19.90;99.90;;;;;;4878502;29;19915;-73
2022/04/08 08:26:57;;;;;;;;;;;19.90;99.90;;;;;;4879119;29;19923;-77
2022/04/08 08:29:23;;;;;;;;;;;19.80;99.90;;;;;;4879148;29;20355;-73
2022/04/08 08:31:50;;;;;;;;;;;19.80;99.90;;;;;;4878715;29;19971;-74
2022/04/08 08:34:17;;;;;;;;;;;19.90;99.90;;;;;;4878752;29;19916;-74
2022/04/08 08:36:43;;;;;;;;;;;19.90;99.90;;;;;;4878232;29;20010;-73
2022/04/08 08:39:10;;;;;;;;;;;20.00;99.90;;;;;;4879103;29;19960;-73
2022/04/08 08:41:37;;;;;;;;;;;19.70;99.90;;;;;;4878819;29;19918;-73
2022/04/08 08:44:04;;;;;;;;;;;19.40;99.90;;;;;;4878587;29;19912;-73
2022/04/08 08:46:34;;;;;;;;;;;19.10;99.90;;;;;;4878835;29;20363;-74
2022/04/08 08:49:02;;;;;;;;;;;19.10;99.90;;;;;;4878604;29;20380;-73
2022/04/08 08:51:30;;;;;;;;;;;19.00;99.90;;;;;;4878928;29;19912;-74
2022/04/08 08:53:57;;;;;;;;;;;19.00;99.90;;;;;;4878672;29;19916;-76
2022/04/08 08:56:25;;;;;;;;;;;19.00;99.90;;;;;;4878716;29;20403;-74
2022/04/08 08:58:51;;;;;;;;;;;19.00;99.90;;;;;;4878826;29;19916;-74
2022/04/08 09:01:18;;;;;;;;;;;19.10;99.90;;;;;;4878774;29;20287;-75
2022/04/08 09:03:45;;;;;;;;;;;19.10;99.90;;;;;;4877653;29;19924;-74
2022/04/08 09:06:11;;;;;;;;;;;19.10;99.90;;;;;;4879714;29;19911;-78
2022/04/08 09:08:48;;;;;;;;;;;19.10;99.90;;;;;;4863784;29;20335;-79
2022/04/08 09:11:23;;;;;;;;;;;19.10;99.90;;;;;;4880680;29;19916;-73
2022/04/08 09:13:50;;;;;;;;;;;19.10;99.90;;;;;;4880447;29;19930;-74
2022/04/08 09:16:29;;;;;;;;;;;19.00;99.90;;;;;;4880487;29;19916;-74
2022/04/08 09:18:56;;;;;;;;;;;19.00;99.90;;;;;;4880410;29;19911;-77
2022/04/08 09:21:24;;;;;;;;;;;18.90;99.90;;;;;;4880345;29;20347;-73
2022/04/08 09:23:51;;;;;;;;;;;19.00;99.90;;;;;;4863454;29;19916;-73
2022/04/08 09:26:19;;;;;;;;;;;19.00;99.90;;;;;;4880444;29;19939;-73
2022/04/08 09:28:46;;;;;;;;;;;19.10;99.90;;;;;;4880413;29;19918;-74
2022/04/08 09:31:16;;;;;;;;;;;19.00;99.90;;;;;;4880148;29;19960;-74
2022/04/08 09:33:49;;;;;;;;;;;19.00;99.90;;;;;;4879857;29;19915;-74
2022/04/08 09:36:36;;;;;;;;;;;18.90;99.90;;;;;;4880182;29;19984;-76
2022/04/08 09:39:07;;;;;;;;;;;18.90;99.90;;;;;;4879604;29;19919;-74
2022/04/08 09:41:44;;;;;;;;;;;18.90;99.90;;;;;;4879850;29;20435;-76
2022/04/08 09:44:12;;;;;;;;;;;19.00;99.90;;;;;;4879880;29;19912;-76
2022/04/08 09:46:39;;;;;;;;;;;18.90;99.90;;;;;;4880003;29;20377;-74
2022/04/08 09:49:06;;;;;;;;;;;18.90;99.90;;;;;;4879072;29;19912;-73
2022/04/08 09:51:37;;;;;;;;;;;18.90;99.90;;;;;;4879824;29;19912;-73
2022/04/08 09:54:05;;;;;;;;;;;19.00;99.90;;;;;;4879618;29;19913;-74
2022/04/08 09:56:34;;;;;;;;;;;19.10;99.90;;;;;;4879964;29;19916;-72
2022/04/08 09:59:08;;;;;;;;;;;19.10;99.90;;;;;;4879901;29;19916;-75
2022/04/08 10:01:35;;;;;;;;;;;19.20;99.90;;;;;;4879712;29;19911;-73
2022/04/08 10:04:06;;;;;;;;;;;19.20;99.90;;;;;;4879643;29;20035;-73
2022/04/08 10:06:33;;;;;;;;;;;19.30;99.90;;;;;;4879638;29;20371;-75
2022/04/08 10:09:00;;;;;;;;;;;19.30;99.90;;;;;;4879466;29;19951;-73
2022/04/08 10:11:33;;;;;;;;;;;19.20;99.90;;;;;;4872950;29;19918;-75
2022/04/08 10:14:09;;;;;;;;;;;19.10;99.90;;;;;;4861003;29;19935;-78
2022/04/08 10:16:39;;;;;;;;;;;19.10;99.90;;;;;;4860969;29;19923;-77
2022/04/08 10:19:07;;;;;;;;;;;19.10;99.90;;;;;;4861100;29;20003;-75
2022/04/08 10:21:39;;;;;;;;;;;19.10;99.90;;;;;;4860814;29;19920;-77
2022/04/08 10:24:10;;;;;;;;;;;19.20;99.90;;;;;;4860940;29;19916;-78
2022/04/08 10:26:56;;;;;;;;;;;19.20;99.90;;;;;;4860804;29;20004;-73
2022/04/08 10:29:22;;;;;;;;;;;19.10;99.90;;;;;;4860984;29;19916;-73
2022/04/08 10:31:56;;;;;;;;;;;19.30;99.90;;;;;;4860665;29;20319;-73
2022/04/08 10:34:23;;;;;;;;;;;19.30;99.90;;;;;;4860748;29;20435;-75
2022/04/08 10:36:50;;;;;;;;;;;19.40;99.90;;;;;;4860789;29;19912;-73
2022/04/08 10:39:21;;;;;;;;;;;19.40;99.90;;;;;;4860621;29;19912;-73
2022/04/08 10:41:52;;;;;;;;;;;19.40;99.90;;;;;;4860228;29;20435;-78
2022/04/08 10:44:39;;;;;;;;;;;19.40;99.90;;;;;;4860716;29;19923;-74
2022/04/08 10:47:14;;;;;;;;;;;19.30;99.90;;;;;;4860405;29;20073;-76
2022/04/08 10:49:54;;;;;;;;;;;19.40;99.90;;;;;;4860653;29;19916;-74
2022/04/08 10:52:25;;;;;;;;;;;19.40;99.90;;;;;;4860770;29;19912;-75
2022/04/08 10:54:52;;;;;;;;;;;19.40;99.90;;;;;;4859351;29;20341;-77
2022/04/08 10:57:33;;;;;;;;;;;19.70;99.90;;;;;;4860221;29;19923;-76
2022/04/08 10:59:59;;;;;;;;;;;19.80;99.90;;;;;;4862289;29;20318;-75
2022/04/08 11:02:34;;;;;;;;;;;19.90;99.90;;;;;;4864169;29;19916;-76
2022/04/08 11:05:02;;;;;;;;;;;19.90;99.90;;;;;;4864416;29;19987;-78
2022/04/08 11:07:31;;;;;;;;;;;19.90;99.90;;;;;;4864308;29;20264;-78
2022/04/08 11:09:58;;;;;;;;;;;19.80;99.90;;;;;;4864065;29;19917;-75
2022/04/08 11:12:25;;;;;;;;;;;19.80;99.90;;;;;;4863814;29;20460;-76
2022/04/08 11:14:57;;;;;;;;;;;19.70;99.90;;;;;;4864015;29;19920;-76
2022/04/08 11:17:33;;;;;;;;;;;19.70;99.90;;;;;;4864015;29;19912;-76
2022/04/08 11:20:00;;;;;;;;;;;19.70;99.90;;;;;;4864000;29;19916;-75
2022/04/08 11:22:26;;;;;;;;;;;19.60;99.90;;;;;;4863856;29;20316;-76
2022/04/08 11:24:56;;;;;;;;;;;19.70;99.90;;;;;;4863829;29;20295;-76
2022/04/08 11:27:23;;;;;;;;;;;19.70;99.90;;;;;;4863481;29;19920;-77
2022/04/08 11:29:50;;;;;;;;;;;19.70;99.90;;;;;;4863515;29;19923;-77
2022/04/08 11:32:16;;;;;;;;;;;19.70;99.90;;;;;;4863728;29;19913;-74
2022/04/08 11:34:43;;;;;;;;;;;19.70;99.90;;;;;;4863665;29;19924;-74
2022/04/08 11:37:10;;;;;;;;;;;19.80;99.90;;;;;;4863786;29;19912;-75
2022/04/08 11:39:40;;;;;;;;;;;19.70;99.90;;;;;;4863444;29;19912;-74
2022/04/08 11:42:06;;;;;;;;;;;19.70;99.90;;;;;;4862655;29;20291;-73
2022/04/08 11:44:33;;;;;;;;;;;19.70;99.90;;;;;;4863700;29;20003;-74
2022/04/08 11:47:07;;;;;;;;;;;19.70;99.90;;;;;;4863329;29;19913;-73
2022/04/08 11:49:34;;;;;;;;;;;19.60;99.90;;;;;;4863240;29;19978;-73
2022/04/08 11:52:01;;;;;;;;;;;19.70;99.90;;;;;;4863586;29;20320;-75
2022/04/08 11:54:28;;;;;;;;;;;19.70;99.90;;;;;;4863129;29;19967;-74
2022/04/08 11:56:55;;;;;;;;;;;19.60;99.90;;;;;;4863374;29;19916;-74
2022/04/08 11:59:21;;;;;;;;;;;19.60;99.90;;;;;;4863306;29;20010;-73
2022/04/08 12:01:48;;;;;;;;;;;19.50;99.90;;;;;;4862867;29;20363;-74
2022/04/08 12:04:16;;;;;;;;;;;19.50;99.90;;;;;;4863238;29;20060;-75
2022/04/08 12:06:44;;;;;;;;;;;19.50;99.90;;;;;;4863261;29;19912;-76
2022/04/08 12:09:11;;;;;;;;;;;19.60;99.90;;;;;;4863063;29;20014;-75
2022/04/08 12:11:42;;;;;;;;;;;19.50;99.90;;;;;;4861591;29;19916;-76
2022/04/08 12:14:10;;;;;;;;;;;19.60;99.90;;;;;;4863188;29;19913;-75
2022/04/08 12:16:39;;;;;;;;;;;19.60;99.90;;;;;;4862770;29;19941;-76
2022/04/08 12:19:08;;;;;;;;;;;19.60;99.90;;;;;;4863074;29;19918;-73
2022/04/08 12:21:35;;;;;;;;;;;19.60;99.90;;;;;;4862910;29;19935;-73
2022/04/08 12:24:04;;;;;;;;;;;19.60;99.90;;;;;;4862706;29;19968;-73
2022/04/08 12:26:31;;;;;;;;;;;19.60;99.90;;;;;;4862436;29;20378;-73
2022/04/08 12:29:07;;;;;;;;;;;19.60;99.90;;;;;;4862692;29;20439;-75
2022/04/08 12:31:44;;;;;;;;;;;19.70;99.90;;;;;;4862282;29;19999;-73
2022/04/08 12:34:11;;;;;;;;;;;19.70;99.90;;;;;;4862666;29;19912;-73
2022/04/08 12:36:38;;;;;;;;;;;19.70;99.90;;;;;;4862377;29;19943;-75
2022/04/08 12:39:05;;;;;;;;;;;19.70;99.90;;;;;;4862596;29;19919;-74
2022/04/08 12:41:31;;;;;;;;;;;19.70;99.90;;;;;;4862568;29;19968;-73
2022/04/08 12:43:59;;;;;;;;;;;19.70;99.90;;;;;;4862624;29;20016;-74
2022/04/08 12:46:27;;;;;;;;;;;19.70;99.90;;;;;;4862555;29;19912;-75
2022/04/08 12:48:53;;;;;;;;;;;19.60;99.90;;;;;;4862694;29;20013;-73
2022/04/08 12:51:20;;;;;;;;;;;19.60;99.90;;;;;;4862537;29;20343;-74
2022/04/08 12:53:47;;;;;;;;;;;19.60;99.90;;;;;;4862130;29;19944;-73
2022/04/08 12:56:13;;;;;;;;;;;19.60;99.90;;;;;;4862341;29;19931;-73
2022/04/08 12:58:40;;;;;;;;;;;19.60;99.90;;;;;;4862269;29;19916;-73
2022/04/08 13:01:07;;;;;;;;;;;19.60;99.90;;;;;;4862148;29;19912;-75
2022/04/08 13:03:33;;;;;;;;;;;19.60;99.90;;;;;;4861948;29;19955;-75
2022/04/08 13:06:00;;;;;;;;;;;19.70;99.90;;;;;;4862403;29;19919;-75
2022/04/08 13:08:27;;;;;;;;;;;19.70;99.90;;;;;;4862191;29;19912;-74
2022/04/08 13:10:53;;;;;;;;;;;19.70;99.90;;;;;;4862334;29;20003;-75
2022/04/08 13:13:21;;;;;;;;;;;19.70;99.90;;;;;;4862164;29;19919;-75
2022/04/08 13:15:48;;;;;;;;;;;19.70;99.90;;;;;;4863185;29;19924;-75
2022/04/08 13:18:14;;;;;;;;;;;19.70;99.90;;;;;;4863329;29;19912;-73
2022/04/08 13:20:41;;;;;;;;;;;19.70;99.90;;;;;;4862139;29;19959;-74
2022/04/08 13:23:07;;;;;;;;;;;19.60;99.90;;;;;;4861697;29;19923;-74
2022/04/08 13:25:34;;;;;;;;;;;19.60;99.90;;;;;;4861927;29;19916;-74
2022/04/08 13:28:01;;;;;;;;;;;19.60;99.90;;;;;;4862007;29;19919;-73
2022/04/08 13:30:27;;;;;;;;;;;19.60;99.90;;;;;;4862563;29;19916;-74
2022/04/08 13:32:54;;;;;;;;;;;19.60;99.90;;;;;;4862390;29;19912;-76
2022/04/08 13:35:21;;;;;;;;;;;19.60;99.90;;;;;;4861744;29;19926;-74
2022/04/08 13:37:47;;;;;;;;;;;19.60;99.90;;;;;;4861461;29;19923;-76
2022/04/08 13:40:14;;;;;;;;;;;19.60;99.90;;;;;;4861668;29;19912;-75
2022/04/08 13:42:41;;;;;;;;;;;19.60;99.90;;;;;;4860363;29;19917;-75
2022/04/08 13:45:08;;;;;;;;;;;19.50;99.90;;;;;;4861462;29;19916;-75
2022/04/08 13:47:35;;;;;;;;;;;19.50;99.90;;;;;;4861307;29;19975;-75
2022/04/08 13:50:02;;;;;;;;;;;19.50;99.90;;;;;;4861647;29;19912;-75
2022/04/08 13:52:30;;;;;;;;;;;19.50;99.90;;;;;;4861381;29;19924;-75
2022/04/08 13:54:57;;;;;;;;;;;19.40;99.90;;;;;;4861825;29;20312;-75
2022/04/08 13:57:23;;;;;;;;;;;19.40;99.90;;;;;;4861546;29;19912;-75
2022/04/08 13:59:50;;;;;;;;;;;19.40;99.90;;;;;;4861085;29;20288;-75
2022/04/08 14:02:17;;;;;;;;;;;19.40;99.90;;;;;;4861164;29;20279;-76
2022/04/08 14:04:43;;;;;;;;;;;19.40;99.90;;;;;;4861337;29;19923;-76
2022/04/08 14:07:10;;;;;;;;;;;19.40;99.90;;;;;;4861223;29;20360;-74
2022/04/08 14:09:37;;;;;;;;;;;19.40;99.90;;;;;;4861085;29;20368;-75
2022/04/08 14:12:03;;;;;;;;;;;19.50;99.90;;;;;;4861348;29;19919;-75
2022/04/08 14:14:30;;;;;;;;;;;19.50;99.90;;;;;;4861442;29;20356;-75
2022/04/08 14:16:57;;;;;;;;;;;19.50;99.90;;;;;;4861097;29;19916;-75
2022/04/08 14:19:23;;;;;;;;;;;19.40;99.90;;;;;;4861074;29;19912;-75